Time;durP1;ratioP1;P1;durP2;ratioP2;P2;SDS_P1;SDS_P2;PMS_P1;PMS_P2;Temp;Humidity;BMP_temperature;BMP_pressure;BME280_temperature;BME280_humidity;BME280_pressure;Samples;Min_cycle;Max_cycle;Signal;HPM_P1;HPM_P2
2024/01/05 00:01:38;;;;;;;15.88;8.70;;;4.00;99.90;;;;;;5054262;28;20044;-84
2024/01/05 00:04:04;;;;;;;15.00;8.30;;;4.00;99.90;;;;;;5053396;28;20041;-84
2024/01/05 00:06:29;;;;;;;15.38;8.32;;;4.00;99.90;;;;;;5053577;28;20044;-84
2024/01/05 00:08:55;;;;;;;14.70;9.18;;;4.00;99.90;;;;;;5052971;28;20048;-83
2024/01/05 00:11:21;;;;;;;13.13;8.48;;;4.00;99.90;;;;;;5052341;28;20446;-83
2024/01/05 00:13:47;;;;;;;18.83;8.98;;;4.00;99.90;;;;;;5052746;28;20044;-84
2024/01/05 00:16:22;;;;;;;16.42;9.50;;;4.00;99.90;;;;;;5052410;28;20037;-84
2024/01/05 00:18:47;;;;;;;15.00;8.93;;;3.90;99.90;;;;;;5059017;28;20061;-84
2024/01/05 00:21:20;;;;;;;14.80;8.80;;;3.90;99.90;;;;;;5072227;28;20064;-81
2024/01/05 00:23:47;;;;;;;17.05;9.38;;;3.90;99.90;;;;;;5072772;28;20040;-84
2024/01/05 00:26:12;;;;;;;18.33;9.35;;;3.90;99.90;;;;;;5061797;28;20444;-85
2024/01/05 00:28:38;;;;;;;14.88;8.90;;;3.90;99.90;;;;;;5062251;28;20079;-84
2024/01/05 00:31:04;;;;;;;15.48;9.10;;;3.90;99.90;;;;;;5061875;28;20411;-84
2024/01/05 00:33:30;;;;;;;16.10;8.88;;;3.90;99.90;;;;;;5061632;28;20480;-84
2024/01/05 00:35:56;;;;;;;17.85;9.75;;;3.90;99.90;;;;;;5062742;28;20048;-84
2024/01/05 00:38:21;;;;;;;18.95;9.25;;;3.90;99.90;;;;;;5046048;28;20048;-84
2024/01/05 00:40:47;;;;;;;16.33;9.55;;;3.90;99.90;;;;;;5064058;28;20149;-84
2024/01/05 00:43:12;;;;;;;19.38;10.55;;;3.90;99.90;;;;;;5066964;28;20045;-84
2024/01/05 00:45:38;;;;;;;17.17;9.68;;;3.80;99.90;;;;;;5046006;28;20047;-84
2024/01/05 00:48:04;;;;;;;16.95;9.15;;;3.80;99.90;;;;;;5061933;28;20110;-84
2024/01/05 00:50:30;;;;;;;15.10;9.43;;;3.80;99.90;;;;;;5063593;28;20036;-84
2024/01/05 00:52:55;;;;;;;18.73;9.43;;;3.80;99.90;;;;;;5065317;28;20036;-83
2024/01/05 00:55:21;;;;;;;16.25;9.77;;;3.80;99.90;;;;;;5061753;28;20469;-84
2024/01/05 00:57:46;;;;;;;17.85;9.80;;;3.80;99.90;;;;;;5061521;28;20095;-84
2024/01/05 01:00:13;;;;;;;17.73;9.95;;;3.80;99.90;;;;;;5061133;28;20124;-84
2024/01/05 01:02:40;;;;;;;19.40;9.35;;;3.80;99.90;;;;;;5062600;28;20084;-84
2024/01/05 01:05:06;;;;;;;18.05;9.02;;;3.80;99.90;;;;;;5058166;28;20052;-83
2024/01/05 01:07:32;;;;;;;17.13;9.57;;;3.80;99.90;;;;;;5066466;28;20388;-84
2024/01/05 01:09:57;;;;;;;16.40;9.45;;;3.80;99.90;;;;;;5060759;28;20048;-84
2024/01/05 01:12:25;;;;;;;17.60;8.70;;;3.70;99.90;;;;;;5062490;28;20040;-84
2024/01/05 01:14:51;;;;;;;14.70;8.13;;;3.80;99.90;;;;;;5041971;28;20087;-83
2024/01/05 01:17:17;;;;;;;17.67;8.85;;;3.70;99.90;;;;;;5063293;28;20045;-84
2024/01/05 01:19:42;;;;;;;16.98;7.95;;;3.80;99.90;;;;;;5058419;28;20377;-84
2024/01/05 01:22:08;;;;;;;19.33;8.73;;;3.70;99.90;;;;;;5058518;28;20102;-82
2024/01/05 01:24:34;;;;;;;14.35;7.93;;;3.70;99.90;;;;;;5061127;28;20102;-84
2024/01/05 01:26:59;;;;;;;15.00;8.45;;;3.70;99.90;;;;;;5062106;28;20086;-84
2024/01/05 01:29:25;;;;;;;14.85;8.23;;;3.70;99.90;;;;;;5057755;28;20403;-84
2024/01/05 01:31:51;;;;;;;13.48;7.93;;;3.70;99.90;;;;;;5063038;28;20041;-83
2024/01/05 01:34:16;;;;;;;14.48;7.55;;;3.70;99.90;;;;;;5044833;28;20389;-84
2024/01/05 01:36:42;;;;;;;14.10;7.00;;;3.70;99.90;;;;;;5061437;28;20123;-84
2024/01/05 01:39:08;;;;;;;14.05;7.40;;;3.70;99.90;;;;;;5048902;28;20102;-84
2024/01/05 01:41:33;;;;;;;16.85;7.68;;;3.60;99.90;;;;;;5040837;28;20388;-84
2024/01/05 01:43:59;;;;;;;14.57;7.38;;;3.70;99.90;;;;;;5064305;28;20052;-84
2024/01/05 01:46:25;;;;;;;15.25;7.22;;;3.60;99.90;;;;;;5063237;28;20047;-84
2024/01/05 01:48:52;;;;;;;22.88;7.50;;;3.70;99.90;;;;;;5057781;28;20045;-84
2024/01/05 01:51:17;;;;;;;18.88;7.78;;;3.70;99.90;;;;;;5059440;28;20049;-84
2024/01/05 01:53:44;;;;;;;14.70;7.20;;;3.70;99.90;;;;;;5064835;28;20036;-84
2024/01/05 01:56:11;;;;;;;15.38;6.97;;;3.70;99.90;;;;;;5060681;28;20049;-84
2024/01/05 01:58:42;;;;;;;13.80;6.80;;;3.70;99.90;;;;;;5067715;28;20045;-83
2024/01/05 02:01:09;;;;;;;16.52;6.97;;;3.70;99.90;;;;;;5062915;28;20108;-84
2024/01/05 02:03:35;;;;;;;14.27;7.63;;;3.70;99.90;;;;;;5060024;28;20045;-84
2024/01/05 02:06:01;;;;;;;20.70;6.95;;;3.70;99.90;;;;;;5061149;28;20130;-83
2024/01/05 02:08:27;;;;;;;15.60;7.68;;;3.60;99.90;;;;;;5060267;28;20504;-84
2024/01/05 02:10:53;;;;;;;15.98;7.35;;;3.60;99.90;;;;;;5059297;28;20126;-82
2024/01/05 02:13:20;;;;;;;12.93;6.55;;;3.60;99.90;;;;;;5059668;28;20080;-82
2024/01/05 02:15:45;;;;;;;18.25;8.20;;;3.60;99.90;;;;;;5059047;28;20500;-82
2024/01/05 02:18:12;;;;;;;16.02;7.88;;;3.70;99.90;;;;;;5060715;28;20043;-82
2024/01/05 02:20:38;;;;;;;12.70;6.78;;;3.70;99.90;;;;;;5060935;28;20123;-82
2024/01/05 02:23:11;;;;;;;15.82;6.53;;;3.70;99.90;;;;;;5060101;28;20137;-83
2024/01/05 02:25:38;;;;;;;16.58;7.75;;;3.70;99.90;;;;;;5052536;28;20041;-82
2024/01/05 02:28:04;;;;;;;14.05;7.63;;;3.70;99.90;;;;;;5053556;28;20057;-83
2024/01/05 02:30:30;;;;;;;18.17;8.15;;;3.60;99.90;;;;;;5057906;28;20139;-84
2024/01/05 02:32:55;;;;;;;15.10;8.27;;;3.60;99.90;;;;;;5058266;28;20110;-83
2024/01/05 02:35:21;;;;;;;16.23;7.53;;;3.60;99.90;;;;;;5057905;28;20044;-83
2024/01/05 02:37:46;;;;;;;15.88;8.40;;;3.60;99.90;;;;;;5058345;28;20041;-83
2024/01/05 02:40:13;;;;;;;19.23;8.20;;;3.60;99.90;;;;;;5058142;28;20049;-83
2024/01/05 02:42:39;;;;;;;14.27;7.57;;;3.60;99.90;;;;;;5057797;28;20463;-83
2024/01/05 02:45:05;;;;;;;15.80;8.15;;;3.60;99.90;;;;;;5057914;28;20053;-84
2024/01/05 02:47:31;;;;;;;17.20;8.52;;;3.60;99.90;;;;;;5057779;28;20076;-82
2024/01/05 02:49:56;;;;;;;17.50;8.25;;;3.60;99.90;;;;;;5058266;28;20079;-84
2024/01/05 02:52:22;;;;;;;19.95;9.65;;;3.60;99.90;;;;;;5057847;28;20422;-83
2024/01/05 02:54:48;;;;;;;17.48;8.68;;;3.60;99.90;;;;;;5057644;28;20049;-84
2024/01/05 02:57:13;;;;;;;19.85;8.32;;;3.50;99.90;;;;;;5057843;28;20052;-83
2024/01/05 02:59:39;;;;;;;18.52;8.95;;;3.50;99.90;;;;;;5057730;28;20408;-83
2024/01/05 03:02:04;;;;;;;20.00;9.10;;;3.50;99.90;;;;;;5063378;28;20077;-83
2024/01/05 03:04:30;;;;;;;17.85;8.50;;;3.60;99.90;;;;;;5077381;28;20044;-83
2024/01/05 03:06:56;;;;;;;19.02;9.48;;;3.50;99.90;;;;;;5077409;28;20037;-83
2024/01/05 03:09:21;;;;;;;19.38;8.95;;;3.50;99.90;;;;;;5077713;28;20602;-84
2024/01/05 03:11:47;;;;;;;18.45;9.57;;;3.50;99.90;;;;;;5077677;28;20040;-84
2024/01/05 03:14:13;;;;;;;20.25;9.15;;;3.50;99.90;;;;;;5077910;28;20047;-84
2024/01/05 03:16:39;;;;;;;20.40;9.73;;;3.50;99.90;;;;;;5077779;28;20048;-84
2024/01/05 03:19:05;;;;;;;18.13;9.60;;;3.50;99.90;;;;;;5077511;28;20049;-84
2024/01/05 03:21:31;;;;;;;17.52;9.05;;;3.50;99.90;;;;;;5077104;28;20067;-83
2024/01/05 03:23:57;;;;;;;20.98;9.98;;;3.50;99.90;;;;;;5077490;28;20079;-84
2024/01/05 03:26:22;;;;;;;20.55;10.23;;;3.60;99.90;;;;;;5077336;28;20075;-84
2024/01/05 03:28:48;;;;;;;22.85;11.10;;;3.50;99.90;;;;;;5077240;28;20480;-84
2024/01/05 03:31:14;;;;;;;23.35;11.10;;;3.50;99.90;;;;;;5077359;28;20060;-84
2024/01/05 03:33:40;;;;;;;24.13;11.25;;;3.50;99.90;;;;;;5077714;28;20045;-83
2024/01/05 03:36:06;;;;;;;32.05;10.73;;;3.50;99.90;;;;;;5077503;28;20044;-83
2024/01/05 03:38:32;;;;;;;25.00;11.25;;;3.50;99.90;;;;;;5076410;28;20451;-83
2024/01/05 03:40:58;;;;;;;22.75;10.77;;;3.50;99.90;;;;;;5057293;28;20068;-83
2024/01/05 03:43:24;;;;;;;21.33;12.77;;;3.50;99.90;;;;;;5074246;28;20049;-83
2024/01/05 03:45:50;;;;;;;19.13;10.63;;;3.50;99.90;;;;;;5074127;28;20048;-83
2024/01/05 03:48:16;;;;;;;23.80;11.98;;;3.50;99.90;;;;;;5074213;28;20559;-83
2024/01/05 03:50:42;;;;;;;20.95;11.63;;;3.50;99.90;;;;;;5074103;28;20468;-83
2024/01/05 03:53:08;;;;;;;21.70;11.70;;;3.50;99.90;;;;;;5074160;28;20048;-81
2024/01/05 03:55:34;;;;;;;26.15;12.18;;;3.50;99.90;;;;;;5073991;28;20077;-83
2024/01/05 03:58:00;;;;;;;20.90;10.73;;;3.50;99.90;;;;;;5074041;28;20068;-83
2024/01/05 04:00:25;;;;;;;20.60;11.13;;;3.50;99.90;;;;;;5074324;28;20492;-82
2024/01/05 04:02:51;;;;;;;22.17;11.05;;;3.50;99.90;;;;;;5074493;28;20044;-82
2024/01/05 04:05:17;;;;;;;23.63;11.30;;;3.50;99.90;;;;;;5074113;28;20044;-82
2024/01/05 04:07:42;;;;;;;20.02;11.93;;;3.50;99.90;;;;;;5074276;28;20052;-82
2024/01/05 04:10:08;;;;;;;21.75;10.50;;;3.50;99.90;;;;;;5074069;28;20048;-82
2024/01/05 04:12:34;;;;;;;20.73;10.98;;;3.50;99.90;;;;;;5073694;28;20048;-82
2024/01/05 04:14:59;;;;;;;21.20;11.02;;;3.50;99.90;;;;;;5074082;28;20045;-82
2024/01/05 04:17:25;;;;;;;21.42;11.60;;;3.50;99.90;;;;;;5073563;28;20052;-82
2024/01/05 04:19:51;;;;;;;20.10;10.98;;;3.40;99.90;;;;;;5073358;28;20554;-82
2024/01/05 04:22:16;;;;;;;21.65;12.00;;;3.40;99.90;;;;;;5073411;28;20113;-82
2024/01/05 04:24:42;;;;;;;21.23;11.85;;;3.40;99.90;;;;;;5073367;28;20045;-82
2024/01/05 04:27:07;;;;;;;21.92;11.65;;;3.50;99.90;;;;;;5073337;28;20090;-82
2024/01/05 04:29:33;;;;;;;23.77;12.55;;;3.50;99.90;;;;;;5073277;28;20758;-82
2024/01/05 04:31:59;;;;;;;19.85;10.65;;;3.50;99.90;;;;;;5073635;28;20122;-82
2024/01/05 04:34:24;;;;;;;21.23;10.32;;;3.50;99.90;;;;;;5073262;28;20044;-82
2024/01/05 04:36:50;;;;;;;18.30;10.77;;;3.50;99.90;;;;;;5073180;28;20045;-82
2024/01/05 04:39:16;;;;;;;20.73;11.15;;;3.50;99.90;;;;;;5073230;28;20053;-83
2024/01/05 04:41:43;;;;;;;20.50;10.63;;;3.50;99.90;;;;;;5072964;28;20044;-83
2024/01/05 04:44:09;;;;;;;23.17;10.98;;;3.50;99.90;;;;;;5073130;28;20056;-81
2024/01/05 04:46:34;;;;;;;18.83;10.27;;;3.50;99.90;;;;;;5072869;28;20051;-83
2024/01/05 04:49:00;;;;;;;17.80;9.27;;;3.50;99.90;;;;;;5073319;28;20096;-83
2024/01/05 04:51:25;;;;;;;19.20;10.25;;;3.50;99.90;;;;;;5072169;28;20175;-83
2024/01/05 04:53:51;;;;;;;18.02;10.07;;;3.90;99.90;;;;;;5072806;28;20040;-83
2024/01/05 04:56:17;;;;;;;19.92;10.90;;;3.40;99.90;;;;;;5072896;28;20048;-83
2024/01/05 04:58:43;;;;;;;19.92;10.38;;;3.40;99.90;;;;;;5073082;28;20040;-82
2024/01/05 05:01:08;;;;;;;20.80;11.50;;;3.40;99.90;;;;;;5073086;28;20110;-82
2024/01/05 05:03:35;;;;;;;20.35;10.98;;;3.40;99.90;;;;;;5072646;28;20389;-83
2024/01/05 05:06:01;;;;;;;19.48;10.88;;;3.40;99.90;;;;;;5072837;28;20097;-83
2024/01/05 05:08:27;;;;;;;19.42;11.05;;;3.40;99.90;;;;;;5072634;28;20451;-83
2024/01/05 05:10:53;;;;;;;19.60;10.05;;;3.40;99.90;;;;;;5072797;28;20044;-83
2024/01/05 05:13:18;;;;;;;19.17;11.30;;;3.40;99.90;;;;;;5072249;28;20139;-83
2024/01/05 05:15:44;;;;;;;21.02;10.48;;;3.40;99.90;;;;;;5072477;28;20109;-83
2024/01/05 05:18:10;;;;;;;20.25;11.05;;;3.40;99.90;;;;;;5072592;28;20083;-83
2024/01/05 05:20:35;;;;;;;21.83;10.60;;;3.40;99.90;;;;;;5071979;28;20464;-83
2024/01/05 05:23:01;;;;;;;19.88;11.30;;;3.40;99.90;;;;;;5072206;28;20044;-83
2024/01/05 05:25:27;;;;;;;19.02;10.43;;;3.50;99.90;;;;;;5071684;28;20079;-83
2024/01/05 05:27:52;;;;;;;22.08;11.57;;;3.50;99.90;;;;;;5072085;28;20059;-82
2024/01/05 05:30:18;;;;;;;17.10;9.80;;;3.50;99.90;;;;;;5055807;28;20097;-83
2024/01/05 05:32:44;;;;;;;20.05;10.63;;;3.50;99.90;;;;;;5071819;28;20048;-84
2024/01/05 05:35:09;;;;;;;21.02;11.95;;;3.50;99.90;;;;;;5071938;28;20446;-83
2024/01/05 05:37:35;;;;;;;19.30;10.95;;;3.50;99.90;;;;;;5071872;28;20048;-83
2024/01/05 05:40:01;;;;;;;20.25;10.93;;;3.50;99.90;;;;;;5071923;28;20048;-83
2024/01/05 05:42:27;;;;;;;21.30;10.93;;;3.50;99.90;;;;;;5072030;28;20135;-84
2024/01/05 05:44:53;;;;;;;19.55;10.90;;;3.50;99.90;;;;;;5072054;28;20174;-83
2024/01/05 05:47:18;;;;;;;20.20;10.30;;;3.50;99.90;;;;;;5071921;28;20052;-83
2024/01/05 05:49:44;;;;;;;22.20;11.20;;;3.50;99.90;;;;;;5071824;28;20051;-83
2024/01/05 05:52:09;;;;;;;19.75;10.68;;;3.50;99.90;;;;;;5071809;28;20052;-83
2024/01/05 05:54:35;;;;;;;18.83;10.60;;;3.50;99.90;;;;;;5071852;28;20048;-83
2024/01/05 05:57:00;;;;;;;20.02;11.38;;;3.50;99.90;;;;;;5071611;28;20079;-82
2024/01/05 05:59:27;;;;;;;19.25;10.40;;;3.80;99.90;;;;;;5072050;28;20043;-84
2024/01/05 06:01:53;;;;;;;17.65;10.30;;;3.50;99.90;;;;;;5071257;28;20055;-83
2024/01/05 06:04:18;;;;;;;24.48;11.73;;;3.50;99.90;;;;;;5071767;28;20044;-83
2024/01/05 06:06:44;;;;;;;19.67;10.77;;;3.60;99.90;;;;;;5071474;28;20084;-83
2024/01/05 06:09:12;;;;;;;21.40;10.10;;;3.50;99.90;;;;;;5071646;28;20091;-83
2024/01/05 06:11:38;;;;;;;18.13;10.80;;;3.60;99.90;;;;;;5071606;28;20127;-83
2024/01/05 06:14:04;;;;;;;20.23;11.45;;;3.50;99.90;;;;;;5071642;28;20091;-83
2024/01/05 06:16:30;;;;;;;19.30;10.73;;;3.50;99.90;;;;;;5071555;28;20484;-83
2024/01/05 06:18:56;;;;;;;18.13;10.55;;;3.50;99.90;;;;;;5071942;28;20048;-83
2024/01/05 06:21:21;;;;;;;19.52;10.75;;;3.70;99.90;;;;;;5071358;28;20400;-82
2024/01/05 06:23:47;;;;;;;18.67;10.60;;;3.60;99.90;;;;;;5071051;28;20056;-83
2024/01/05 06:26:12;;;;;;;22.05;11.55;;;3.60;99.90;;;;;;5071429;28;20048;-83
2024/01/05 06:28:38;;;;;;;20.33;10.38;;;3.60;99.90;;;;;;5071416;28;20045;-83
2024/01/05 06:31:05;;;;;;;17.52;10.07;;;3.60;99.90;;;;;;5070691;28;20052;-83
2024/01/05 06:33:31;;;;;;;19.63;9.98;;;3.60;99.90;;;;;;5071395;28;20166;-82
2024/01/05 06:35:56;;;;;;;17.45;9.70;;;3.80;99.90;;;;;;5055537;28;20498;-81
2024/01/05 06:38:22;;;;;;;17.33;9.80;;;3.60;99.90;;;;;;5049019;28;20128;-81
2024/01/05 06:40:47;;;;;;;17.65;10.15;;;3.60;99.90;;;;;;5059504;28;20037;-82
2024/01/05 06:43:13;;;;;;;18.45;10.15;;;3.60;99.90;;;;;;5049041;28;20480;-84
2024/01/05 06:45:39;;;;;;;18.48;9.55;;;3.70;99.90;;;;;;5032533;28;20036;-82
2024/01/05 06:48:05;;;;;;;16.70;9.55;;;3.60;99.90;;;;;;5062809;28;20045;-82
2024/01/05 06:50:31;;;;;;;17.20;10.00;;;3.60;99.90;;;;;;5060331;28;20042;-81
2024/01/05 06:52:57;;;;;;;18.90;10.50;;;3.60;99.90;;;;;;5062615;28;20119;-83
2024/01/05 06:55:22;;;;;;;16.17;9.10;;;3.70;99.90;;;;;;5062881;28;20098;-82
2024/01/05 06:57:48;;;;;;;20.08;10.05;;;3.60;99.90;;;;;;5062899;28;20045;-81
2024/01/05 07:00:14;;;;;;;18.02;9.52;;;3.60;99.90;;;;;;5071926;28;20088;-81
2024/01/05 07:02:42;;;;;;;16.85;9.88;;;3.60;99.90;;;;;;5064027;28;20049;-82
2024/01/05 07:05:08;;;;;;;17.33;9.57;;;3.70;99.90;;;;;;5088637;28;20050;-82
2024/01/05 07:07:34;;;;;;;20.35;10.27;;;3.60;99.90;;;;;;5091442;28;20044;-81
2024/01/05 07:09:59;;;;;;;19.35;10.68;;;3.70;99.90;;;;;;5091350;28;20101;-82
2024/01/05 07:12:27;;;;;;;19.88;10.75;;;3.60;99.90;;;;;;5091595;28;20056;-82
2024/01/05 07:14:53;;;;;;;18.75;10.30;;;3.60;99.90;;;;;;5092878;28;20048;-82
2024/01/05 07:17:19;;;;;;;17.83;10.00;;;3.70;99.90;;;;;;5094946;28;20384;-82
2024/01/05 07:19:45;;;;;;;18.30;10.18;;;3.70;99.90;;;;;;5094812;28;20060;-82
2024/01/05 07:22:10;;;;;;;19.50;10.95;;;3.70;99.90;;;;;;5094769;28;20384;-82
2024/01/05 07:24:37;;;;;;;18.80;10.48;;;3.70;99.90;;;;;;5078316;28;20048;-81
2024/01/05 07:27:06;;;;;;;19.52;10.73;;;3.70;99.90;;;;;;5094652;28;20044;-82
2024/01/05 07:29:31;;;;;;;19.00;10.73;;;3.70;99.90;;;;;;5094690;28;20048;-81
2024/01/05 07:31:57;;;;;;;22.17;10.27;;;3.70;99.90;;;;;;5094539;28;20044;-82
2024/01/05 07:34:23;;;;;;;20.70;10.65;;;3.70;99.90;;;;;;5094617;28;20181;-82
2024/01/05 07:36:48;;;;;;;21.70;11.18;;;3.70;99.90;;;;;;5094769;28;20131;-82
2024/01/05 07:39:15;;;;;;;18.30;9.88;;;3.70;99.90;;;;;;5094769;28;20048;-82
2024/01/05 07:41:41;;;;;;;19.50;10.35;;;3.70;99.90;;;;;;5094471;28;20794;-82
2024/01/05 07:44:06;;;;;;;22.50;11.25;;;3.80;99.90;;;;;;5083472;28;20075;-82
2024/01/05 07:46:42;;;;;;;22.13;11.15;;;3.80;99.90;;;;;;5057172;28;20522;-82
2024/01/05 07:49:08;;;;;;;21.98;11.75;;;3.90;99.90;;;;;;5053951;28;20455;-82
2024/01/05 07:51:34;;;;;;;20.38;11.25;;;3.70;99.90;;;;;;5072034;28;20151;-82
2024/01/05 07:54:00;;;;;;;22.73;10.90;;;3.80;99.90;;;;;;5074131;28;20052;-82
2024/01/05 07:56:25;;;;;;;21.50;12.18;;;3.80;99.90;;;;;;5074095;28;20052;-82
2024/01/05 07:58:51;;;;;;;23.35;11.43;;;3.80;99.90;;;;;;5074069;28;20514;-81
2024/01/05 08:01:17;;;;;;;21.92;11.95;;;3.80;99.90;;;;;;5074348;28;20135;-82
2024/01/05 08:03:46;;;;;;;21.17;12.02;;;3.80;99.90;;;;;;5073953;28;20475;-82
2024/01/05 08:06:16;;;;;;;26.63;13.07;;;3.80;99.90;;;;;;5073997;28;20040;-82
2024/01/05 08:08:44;;;;;;;23.27;13.07;;;3.80;99.90;;;;;;5067287;28;20128;-81
2024/01/05 08:11:10;;;;;;;27.48;13.07;;;3.80;99.90;;;;;;5066811;28;20117;-81
2024/01/05 08:13:36;;;;;;;27.30;13.93;;;4.00;99.90;;;;;;5056901;28;20492;-82
2024/01/05 08:16:03;;;;;;;27.33;12.18;;;3.80;99.90;;;;;;5059430;28;20107;-82
2024/01/05 08:18:29;;;;;;;26.35;13.35;;;3.80;99.90;;;;;;5073474;28;20053;-81
2024/01/05 08:20:54;;;;;;;28.35;12.85;;;3.80;99.90;;;;;;5073550;28;20063;-82
2024/01/05 08:23:20;;;;;;;22.63;12.77;;;3.80;99.90;;;;;;5073807;28;20053;-83
2024/01/05 08:25:47;;;;;;;23.02;12.50;;;3.90;99.90;;;;;;5073283;28;20040;-82
2024/01/05 08:28:12;;;;;;;25.58;12.18;;;3.80;99.90;;;;;;5074071;28;20119;-83
2024/01/05 08:30:39;;;;;;;24.50;12.38;;;3.90;99.90;;;;;;5061856;28;20115;-83
2024/01/05 08:33:05;;;;;;;27.33;13.30;;;3.90;99.90;;;;;;5047770;28;20500;-83
2024/01/05 08:35:31;;;;;;;24.92;12.02;;;3.90;99.90;;;;;;5064715;28;20033;-81
2024/01/05 08:37:57;;;;;;;25.90;12.95;;;3.90;99.90;;;;;;5061920;28;20071;-82
2024/01/05 08:40:26;;;;;;;25.30;12.35;;;3.90;99.90;;;;;;5056111;28;20080;-81
2024/01/05 08:42:52;;;;;;;25.58;12.82;;;3.90;99.90;;;;;;5058807;28;20530;-81
2024/01/05 08:45:19;;;;;;;26.25;12.88;;;3.90;99.90;;;;;;5062528;28;20163;-82
2024/01/05 08:47:45;;;;;;;26.92;13.32;;;3.90;99.90;;;;;;5064561;28;20484;-82
2024/01/05 08:50:11;;;;;;;26.02;12.90;;;4.00;99.90;;;;;;5063178;28;20040;-82
2024/01/05 08:52:39;;;;;;;25.95;13.13;;;4.00;99.90;;;;;;5047962;28;20045;-83
2024/01/05 08:55:05;;;;;;;24.05;13.38;;;4.00;99.90;;;;;;5046682;28;20049;-82
2024/01/05 08:57:31;;;;;;;21.50;11.65;;;4.00;99.90;;;;;;5063557;28;20126;-85
2024/01/05 08:59:56;;;;;;;28.95;13.18;;;4.60;99.90;;;;;;5061095;28;20072;-82
2024/01/05 09:02:23;;;;;;;24.73;12.35;;;4.00;99.90;;;;;;5064973;28;20431;-81
2024/01/05 09:04:48;;;;;;;26.10;12.45;;;4.00;99.90;;;;;;5051267;28;20051;-81
2024/01/05 09:07:14;;;;;;;22.52;12.20;;;4.00;99.90;;;;;;5058401;28;20040;-83
2024/01/05 09:09:40;;;;;;;32.80;14.98;;;4.00;99.90;;;;;;5055618;28;20048;-81
2024/01/05 09:12:07;;;;;;;28.75;13.93;;;4.00;99.90;;;;;;5058312;28;20079;-81
2024/01/05 09:14:33;;;;;;;30.25;13.57;;;4.00;99.90;;;;;;5063485;28;20048;-81
2024/01/05 09:16:58;;;;;;;25.55;13.50;;;4.20;99.90;;;;;;5065324;28;20071;-81
2024/01/05 09:19:24;;;;;;;26.00;13.07;;;4.10;99.90;;;;;;5065003;28;20123;-81
2024/01/05 09:21:50;;;;;;;26.27;12.73;;;4.10;99.90;;;;;;5063093;28;20049;-82
2024/01/05 09:24:15;;;;;;;26.92;12.30;;;4.10;99.90;;;;;;5058296;28;20393;-82
2024/01/05 09:26:42;;;;;;;25.42;13.05;;;4.10;99.90;;;;;;5058881;28;20396;-81
2024/01/05 09:29:07;;;;;;;25.85;13.40;;;4.10;99.90;;;;;;5056778;28;20565;-81
2024/01/05 09:31:33;;;;;;;28.10;13.55;;;4.10;99.90;;;;;;5061638;28;20048;-80
2024/01/05 09:33:59;;;;;;;27.42;12.77;;;4.20;99.90;;;;;;5065692;28;20103;-82
2024/01/05 09:36:25;;;;;;;23.95;12.85;;;4.10;99.90;;;;;;5057907;28;20053;-81
2024/01/05 09:38:50;;;;;;;26.73;13.88;;;4.10;99.90;;;;;;5053838;28;20053;-80
2024/01/05 09:41:16;;;;;;;33.53;14.85;;;4.20;99.90;;;;;;5047709;28;20045;-80
2024/01/05 09:43:47;;;;;;;29.05;14.10;;;4.20;99.90;;;;;;5047118;28;20037;-79
2024/01/05 09:46:13;;;;;;;28.30;13.50;;;4.30;99.90;;;;;;5048269;28;20095;-80
2024/01/05 09:48:39;;;;;;;27.15;13.02;;;4.20;99.90;;;;;;5047816;28;20053;-80
2024/01/05 09:51:07;;;;;;;31.08;14.30;;;4.20;99.90;;;;;;5048860;28;20048;-80
2024/01/05 09:53:32;;;;;;;26.23;13.32;;;4.20;99.90;;;;;;5048634;28;20053;-80
2024/01/05 09:55:58;;;;;;;30.67;14.60;;;4.20;99.90;;;;;;5048312;28;20049;-79
2024/01/05 09:58:25;;;;;;;28.63;14.00;;;4.30;99.90;;;;;;5050175;28;20057;-80
2024/01/05 10:00:52;;;;;;;31.83;14.95;;;4.30;99.90;;;;;;5050192;28;20424;-80
2024/01/05 10:03:26;;;;;;;32.65;15.93;;;4.30;99.90;;;;;;5049206;28;20056;-81
2024/01/05 10:05:58;;;;;;;36.38;15.38;;;4.30;99.90;;;;;;5050826;28;20404;-81
2024/01/05 10:08:23;;;;;;;40.63;16.83;;;4.30;99.90;;;;;;5051556;28;20515;-81
2024/01/05 10:10:55;;;;;;;33.67;15.50;;;4.40;99.90;;;;;;5050794;28;20049;-81
2024/01/05 10:13:21;;;;;;;31.70;14.52;;;4.40;99.90;;;;;;5050859;28;20083;-81
2024/01/05 10:15:59;;;;;;;35.42;16.25;;;4.40;99.90;;;;;;5051581;28;20037;-81
2024/01/05 10:18:28;;;;;;;32.58;15.30;;;4.50;99.90;;;;;;5050744;28;20130;-82
2024/01/05 10:20:55;;;;;;;28.00;14.23;;;4.50;99.90;;;;;;5051389;28;20052;-81
2024/01/05 10:23:21;;;;;;;30.35;14.32;;;4.50;99.90;;;;;;5050604;28;20044;-81
2024/01/05 10:25:47;;;;;;;32.25;14.93;;;4.60;99.90;;;;;;5051529;28;20044;-81
2024/01/05 10:28:32;;;;;;;29.73;13.95;;;4.60;99.90;;;;;;5050112;28;20505;-81
2024/01/05 10:31:12;;;;;;;28.70;13.32;;;4.60;99.90;;;;;;5050662;28;20405;-81
2024/01/05 10:33:51;;;;;;;25.75;13.45;;;4.60;99.90;;;;;;5050612;28;20564;-81
2024/01/05 10:36:21;;;;;;;21.75;12.27;;;4.60;99.90;;;;;;5051297;28;20081;-81
2024/01/05 10:38:48;;;;;;;24.02;12.57;;;4.60;99.90;;;;;;5050613;28;20055;-81
2024/01/05 10:41:16;;;;;;;25.20;12.80;;;4.60;99.90;;;;;;5050575;28;20067;-81
2024/01/05 10:43:42;;;;;;;23.60;12.27;;;4.60;99.90;;;;;;5033443;28;20041;-80
2024/01/05 10:46:12;;;;;;;24.23;12.27;;;4.80;99.90;;;;;;5051431;28;20052;-81
2024/01/05 10:48:39;;;;;;;27.55;13.00;;;4.60;99.90;;;;;;5051383;28;20048;-81
2024/01/05 10:51:09;;;;;;;25.45;12.82;;;4.60;99.90;;;;;;5054572;28;20513;-81
2024/01/05 10:53:35;;;;;;;25.45;13.32;;;4.60;99.90;;;;;;5055336;28;20099;-81
2024/01/05 10:56:02;;;;;;;24.15;13.20;;;4.80;99.90;;;;;;5054309;28;20044;-81
2024/01/05 10:58:28;;;;;;;25.67;12.52;;;4.60;99.90;;;;;;5055683;28;20041;-81
2024/01/05 11:00:57;;;;;;;25.58;12.02;;;4.70;99.90;;;;;;5055123;28;20103;-81
2024/01/05 11:03:24;;;;;;;23.88;12.25;;;4.70;99.90;;;;;;5054334;28;20052;-81
2024/01/05 11:05:51;;;;;;;24.38;12.00;;;4.70;99.90;;;;;;5055047;28;20447;-81
2024/01/05 11:08:56;;;;;;;26.60;13.02;;;4.70;99.90;;;;;;5054148;28;20449;-81
2024/01/05 11:11:47;;;;;;;24.58;12.35;;;4.70;99.90;;;;;;5039068;28;20060;-81
2024/01/05 11:14:48;;;;;;;27.67;13.63;;;4.70;99.90;;;;;;5055129;28;20053;-81
2024/01/05 11:17:17;;;;;;;29.45;12.95;;;4.80;99.90;;;;;;5053886;28;20060;-81
2024/01/05 11:19:59;;;;;;;29.23;14.27;;;4.80;99.90;;;;;;5054771;28;20061;-81
2024/01/05 11:22:30;;;;;;;28.55;13.95;;;4.80;99.90;;;;;;5055056;28;20083;-81
2024/01/05 11:24:57;;;;;;;25.38;12.70;;;4.80;99.90;;;;;;5054931;28;20052;-81
2024/01/05 11:27:28;;;;;;;31.02;14.07;;;4.80;99.90;;;;;;5053300;28;20041;-81
2024/01/05 11:29:54;;;;;;;32.28;16.83;;;4.90;99.90;;;;;;5053666;28;20048;-80
2024/01/05 11:32:46;;;;;;;29.05;15.32;;;4.90;99.90;;;;;;5054783;28;20049;-81
2024/01/05 11:35:21;;;;;;;36.35;17.08;;;4.90;99.90;;;;;;5049080;28;20088;-80
2024/01/05 11:37:47;;;;;;;;;;;4.90;99.90;;;;;;5055007;28;20044;-81
2024/01/05 11:40:25;;;;;;;31.08;14.77;;;4.90;99.90;;;;;;5053598;28;20384;-80
2024/01/05 11:42:51;;;;;;;29.83;15.27;;;4.90;99.90;;;;;;5053640;28;20037;-81
2024/01/05 11:45:47;;;;;;;30.52;14.45;;;4.90;99.90;;;;;;5053360;28;20088;-81
2024/01/05 11:48:34;;;;;;;31.33;15.10;;;5.00;99.90;;;;;;5053356;28;20404;-81
2024/01/05 11:51:05;;;;;;;33.15;14.10;;;5.00;99.90;;;;;;5054207;28;20095;-81
2024/01/05 11:53:31;;;;;;;31.80;14.80;;;4.90;99.90;;;;;;5053127;28;20051;-80
2024/01/05 11:55:58;;;;;;;29.00;14.88;;;5.00;99.90;;;;;;5053766;28;20037;-81
2024/01/05 11:58:28;;;;;;;29.55;13.93;;;5.00;99.90;;;;;;5053112;28;20055;-81
2024/01/05 12:00:56;;;;;;;24.73;13.38;;;5.00;99.90;;;;;;5053906;28;20057;-80
2024/01/05 12:03:24;;;;;;;27.85;13.63;;;5.00;99.90;;;;;;5054195;28;20291;-80
2024/01/05 12:05:51;;;;;;;30.02;13.65;;;5.00;99.90;;;;;;5053907;28;20136;-81
2024/01/05 12:08:17;;;;;;;29.42;13.38;;;5.00;99.90;;;;;;5052843;28;20049;-80
2024/01/05 12:10:43;;;;;;;28.92;14.27;;;5.00;99.90;;;;;;5053014;28;20543;-80
2024/01/05 12:13:08;;;;;;;28.95;14.20;;;5.00;99.90;;;;;;5054102;28;20049;-80
2024/01/05 12:15:35;;;;;;;27.15;12.98;;;5.00;99.90;;;;;;5052774;28;20099;-80
2024/01/05 12:18:03;;;;;;;33.45;15.45;;;5.00;99.90;;;;;;5053809;28;20413;-81
2024/01/05 12:20:32;;;;;;;27.20;14.30;;;5.00;99.90;;;;;;5052336;28;20057;-81
2024/01/05 12:22:58;;;;;;;29.75;14.35;;;5.00;99.90;;;;;;5052814;28;20465;-81
2024/01/05 12:25:24;;;;;;;29.40;14.32;;;5.00;99.90;;;;;;5053550;28;20124;-80
2024/01/05 12:27:50;;;;;;;28.48;12.77;;;4.90;99.90;;;;;;5052539;28;20049;-81
2024/01/05 12:30:16;;;;;;;30.15;13.95;;;5.00;99.90;;;;;;5053739;28;20045;-81
2024/01/05 12:32:43;;;;;;;30.85;13.70;;;4.90;99.90;;;;;;5053711;28;20099;-80
2024/01/05 12:35:10;;;;;;;28.17;13.07;;;5.00;99.90;;;;;;5053406;28;20043;-81
2024/01/05 12:37:35;;;;;;;28.08;13.45;;;4.90;99.90;;;;;;5052053;28;20057;-80
2024/01/05 12:40:11;;;;;;;28.48;13.80;;;5.00;99.90;;;;;;5053466;28;20044;-79